Artesian, Iowa
Current Conditions -  °F | °C
As of 12:54 AM on Saturday 01 Nov 2014 (Local Time) from KALO Reporting Station
Unknown Precip Unknown Precip  
Wind Chill: 21°   Ceiling: Unl
Heat Index: 21°   Visibility: 10mi
Dew Point: 16°   Wind: 0mph
Humidity: 81%   Direction: NA
Pressure: 30.48"   Gusts: NA
Location:  42.787°N, 92.4284°W
Report Text: KALO 010554Z 00000KT 10SM UP CLR M06/M09 A3048 RMK AO2 UPE15B33 SLP331 P0000 60000 T10611089 11011 21078 400561078 50002
Loading
Personal Weather Stations






























Interactive Weather Map
Tropical Storm Tracking
New forecast layout! Learn more

10-Day Weather Forecast

Advertisements
Track Severe Weather on mobile